Sydney / J.A. Douglas McCurdy Airport

CYQY | YQY

Sydney , Nova Scotia , Canada

Saturday, September 21st, 2019 | 08:29

Weather

CYQY 211100Z 33007KT 15SM FEW048 SCT055 BKN085 BKN250 16/13 A2982 RMK CU1SC3AC1CI1 SLP102 DENSITY ALT 500FT

Charts

No Charts Available

Gates

6 Available

Runways

2 Available

Events

No events for this airport


New event